Time;durP1;ratioP1;P1;durP2;ratioP2;P2;SDS_P1;SDS_P2;PMS_P1;PMS_P2;Temp;Humidity;BMP_temperature;BMP_pressure;BME280_temperature;BME280_humidity;BME280_pressure;Samples;Min_cycle;Max_cycle;Signal;HPM_P1;HPM_P2
2023/11/11 00:01:59;;;;;;;10.10;6.25;;;;;;;;;;5014093;28;20021;-60
2023/11/11 00:04:25;;;;;;;14.82;7.57;;;;;;;;;;5033163;28;20083;-60
2023/11/11 00:06:52;;;;;;;11.43;5.38;;;;;;;;;;5030281;28;20598;-61
2023/11/11 00:09:18;;;;;;;24.08;13.10;;;;;;;;;;5034683;28;20060;-62
2023/11/11 00:11:45;;;;;;;16.35;10.85;;;;;;;;;;5033740;28;20033;-61
2023/11/11 00:14:11;;;;;;;14.63;10.20;;;;;;;;;;5031457;28;20025;-61
2023/11/11 00:16:38;;;;;;;20.20;11.88;;;;;;;;;;5009860;28;20501;-61
2023/11/11 00:19:04;;;;;;;14.63;10.88;;;;;;;;;;5028797;28;20530;-60
2023/11/11 00:21:30;;;;;;;9.25;7.45;;;;;;;;;;5023532;28;20025;-61
2023/11/11 00:23:56;;;;;;;10.05;7.38;;;;;;;;;;5044384;28;20530;-60
2023/11/11 00:26:23;;;;;;;10.23;7.05;;;;;;;;;;5028454;28;20033;-61
2023/11/11 00:28:49;;;;;;;8.00;6.43;;;;;;;;;;5038143;28;20457;-61
2023/11/11 00:31:15;;;;;;;6.50;5.90;;;;;;;;;;5040359;28;20025;-62
2023/11/11 00:33:42;;;;;;;7.10;5.80;;;;;;;;;;5031778;28;20264;-61
2023/11/11 00:36:09;;;;;;;7.07;5.38;;;;;;;;;;5030181;28;20116;-61
2023/11/11 00:38:36;;;;;;;8.48;5.32;;;;;;;;;;5032782;28;20033;-62
2023/11/11 00:41:03;;;;;;;7.07;5.72;;;;;;;;;;5033699;28;20040;-61
2023/11/11 00:43:29;;;;;;;6.63;4.80;;;;;;;;;;5039092;28;20119;-60
2023/11/11 00:45:55;;;;;;;5.50;3.72;;;;;;;;;;5034515;28;20041;-61
2023/11/11 00:48:23;;;;;;;5.43;3.65;;;;;;;;;;5032680;28;20377;-61
2023/11/11 00:50:49;;;;;;;7.32;3.28;;;;;;;;;;5036619;28;20058;-60
2023/11/11 00:53:15;;;;;;;5.35;3.83;;;;;;;;;;5036671;28;20024;-61
2023/11/11 00:55:41;;;;;;;3.80;2.90;;;;;;;;;;5037821;28;20386;-61
2023/11/11 00:58:08;;;;;;;13.80;3.30;;;;;;;;;;5035272;28;20059;-61
2023/11/11 01:00:35;;;;;;;4.60;2.88;;;;;;;;;;5035599;28;20021;-62
2023/11/11 01:03:01;;;;;;;7.35;3.00;;;;;;;;;;5031482;28;20298;-61
2023/11/11 01:05:27;;;;;;;7.47;3.97;;;;;;;;;;5014551;28;20064;-61
2023/11/11 01:07:53;;;;;;;10.43;3.65;;;;;;;;;;5031770;28;20038;-60
2023/11/11 01:10:22;;;;;;;4.57;3.60;;;;;;;;;;5029384;28;20623;-61
2023/11/11 01:12:49;;;;;;;5.35;3.60;;;;;;;;;;5030093;28;20453;-61
2023/11/11 01:15:15;;;;;;;8.18;4.15;;;;;;;;;;5035098;28;20040;-61
2023/11/11 01:17:41;;;;;;;6.18;3.20;;;;;;;;;;5012080;28;20064;-60
2023/11/11 01:20:07;;;;;;;3.75;3.08;;;;;;;;;;5025224;28;20048;-61
2023/11/11 01:22:34;;;;;;;6.03;3.75;;;;;;;;;;5013797;28;20132;-61
2023/11/11 01:25:00;;;;;;;6.65;3.10;;;;;;;;;;5043686;28;20029;-61
2023/11/11 01:27:26;;;;;;;7.28;4.93;;;;;;;;;;5031371;28;20514;-60
2023/11/11 01:29:53;;;;;;;5.15;3.08;;;;;;;;;;5041605;28;20021;-61
2023/11/11 01:32:19;;;;;;;6.10;3.25;;;;;;;;;;5036946;28;20112;-61
2023/11/11 01:34:45;;;;;;;6.57;2.92;;;;;;;;;;5031157;28;20086;-61
2023/11/11 01:37:12;;;;;;;9.50;4.35;;;;;;;;;;5038501;28;20021;-60
2023/11/11 01:39:38;;;;;;;6.22;3.38;;;;;;;;;;5036833;28;20032;-60
2023/11/11 01:42:05;;;;;;;4.30;3.10;;;;;;;;;;5040998;28;20055;-68
2023/11/11 01:44:31;;;;;;;4.63;3.08;;;;;;;;;;5021666;28;20074;-68
2023/11/11 01:46:57;;;;;;;5.85;3.55;;;;;;;;;;5036049;28;20037;-69
2023/11/11 01:49:24;;;;;;;6.80;3.15;;;;;;;;;;5031276;28;20020;-68
2023/11/11 01:51:54;;;;;;;4.53;3.55;;;;;;;;;;5036639;28;20025;-68
2023/11/11 01:54:22;;;;;;;7.32;3.45;;;;;;;;;;5038072;28;20023;-68
2023/11/11 01:56:48;;;;;;;8.93;4.30;;;;;;;;;;5032633;28;20038;-68
2023/11/11 01:59:17;;;;;;;4.45;3.33;;;;;;;;;;5030822;28;20104;-72
2023/11/11 02:01:45;;;;;;;5.68;3.97;;;;;;;;;;5038076;28;20116;-69
2023/11/11 02:04:11;;;;;;;6.97;4.60;;;;;;;;;;5036459;28;20045;-68
2023/11/11 02:06:38;;;;;;;9.57;6.20;;;;;;;;;;5036039;28;20036;-69
2023/11/11 02:09:05;;;;;;;7.53;5.07;;;;;;;;;;5038286;28;20025;-72
2023/11/11 02:11:31;;;;;;;6.30;4.60;;;;;;;;;;5032324;28;20498;-69
2023/11/11 02:13:58;;;;;;;9.93;5.30;;;;;;;;;;5034264;28;20029;-70
2023/11/11 02:16:25;;;;;;;7.10;5.10;;;;;;;;;;5036128;28;20021;-69
2023/11/11 02:18:51;;;;;;;9.80;4.95;;;;;;;;;;5033861;28;20037;-70
2023/11/11 02:21:18;;;;;;;10.52;5.53;;;;;;;;;;5032580;28;20032;-69
2023/11/11 02:23:44;;;;;;;9.07;6.00;;;;;;;;;;5041252;28;20037;-69
2023/11/11 02:26:11;;;;;;;9.40;6.18;;;;;;;;;;5036665;28;20059;-61
2023/11/11 02:28:37;;;;;;;9.68;6.78;;;;;;;;;;5026936;28;20025;-63
2023/11/11 02:31:05;;;;;;;10.55;6.13;;;;;;;;;;5037880;28;20544;-62
2023/11/11 02:33:31;;;;;;;12.65;8.05;;;;;;;;;;5038170;28;20533;-62
2023/11/11 02:35:57;;;;;;;14.38;6.95;;;;;;;;;;5029802;28;20507;-63
2023/11/11 02:38:23;;;;;;;12.45;7.68;;;;;;;;;;5036925;28;20040;-64
2023/11/11 02:40:50;;;;;;;14.88;7.35;;;;;;;;;;5017540;28;20036;-61
2023/11/11 02:43:16;;;;;;;14.30;7.75;;;;;;;;;;5043111;28;20029;-63
2023/11/11 02:45:42;;;;;;;14.90;7.82;;;;;;;;;;5037101;28;20494;-61
2023/11/11 02:48:08;;;;;;;13.40;6.93;;;;;;;;;;5037325;28;20407;-61
2023/11/11 02:50:34;;;;;;;11.65;5.85;;;;;;;;;;5041411;28;20108;-62
2023/11/11 02:53:01;;;;;;;10.23;6.50;;;;;;;;;;5033225;28;20387;-67
2023/11/11 02:55:27;;;;;;;12.57;5.95;;;;;;;;;;5019223;28;20552;-60
2023/11/11 02:57:53;;;;;;;10.90;5.45;;;;;;;;;;5037700;28;20538;-61
2023/11/11 03:00:21;;;;;;;13.82;6.35;;;;;;;;;;5022921;28;20597;-61
2023/11/11 03:02:47;;;;;;;12.00;6.22;;;;;;;;;;5035518;28;20076;-64
2023/11/11 03:05:13;;;;;;;10.90;5.50;;;;;;;;;;5019122;28;20098;-62
2023/11/11 03:07:39;;;;;;;15.50;5.60;;;;;;;;;;5036593;28;21402;-61
2023/11/11 03:10:06;;;;;;;9.32;5.60;;;;;;;;;;5036662;28;20130;-62
2023/11/11 03:12:35;;;;;;;8.35;5.13;;;;;;;;;;5019067;28;20026;-62
2023/11/11 03:15:01;;;;;;;9.85;5.43;;;;;;;;;;5034400;28;20024;-61
2023/11/11 03:17:31;;;;;;;11.55;4.97;;;;;;;;;;5029276;28;20033;-60
2023/11/11 03:19:57;;;;;;;14.55;6.38;;;;;;;;;;5034404;28;20052;-61
2023/11/11 03:22:23;;;;;;;10.48;4.88;;;;;;;;;;5034253;28;20426;-62
2023/11/11 03:24:50;;;;;;;11.73;5.43;;;;;;;;;;5040949;28;20029;-62
2023/11/11 03:27:16;;;;;;;10.25;6.00;;;;;;;;;;5037482;28;20040;-61
2023/11/11 03:29:42;;;;;;;9.70;5.35;;;;;;;;;;5035382;28;20025;-61
2023/11/11 03:32:09;;;;;;;10.13;4.75;;;;;;;;;;5033843;28;20039;-61
2023/11/11 03:34:35;;;;;;;14.18;6.22;;;;;;;;;;5032605;28;20810;-61
2023/11/11 03:37:01;;;;;;;13.30;6.43;;;;;;;;;;5027764;28;20095;-61
2023/11/11 03:39:31;;;;;;;13.82;7.57;;;;;;;;;;5030092;28;20044;-61
2023/11/11 03:41:57;;;;;;;14.93;6.20;;;;;;;;;;5032018;28;20430;-60
2023/11/11 03:44:23;;;;;;;12.77;6.15;;;;;;;;;;5033903;28;20032;-62
2023/11/11 03:46:49;;;;;;;11.32;6.03;;;;;;;;;;5016110;28;20033;-64
2023/11/11 03:49:16;;;;;;;8.77;6.07;;;;;;;;;;5036081;28;20025;-62
2023/11/11 03:51:42;;;;;;;12.57;6.13;;;;;;;;;;5029699;28;20509;-62
2023/11/11 03:54:08;;;;;;;11.85;6.03;;;;;;;;;;5013348;28;20112;-62
2023/11/11 03:56:34;;;;;;;10.60;5.40;;;;;;;;;;5031302;28;20033;-61
2023/11/11 03:59:01;;;;;;;9.30;5.35;;;;;;;;;;5028010;28;20478;-61
2023/11/11 04:01:27;;;;;;;7.90;5.40;;;;;;;;;;5035033;28;20501;-62
2023/11/11 04:03:53;;;;;;;9.85;5.43;;;;;;;;;;5035921;28;20166;-61
2023/11/11 04:06:19;;;;;;;10.80;5.65;;;;;;;;;;5033823;28;20033;-61
2023/11/11 04:08:45;;;;;;;9.32;5.85;;;;;;;;;;5036835;28;20086;-61
2023/11/11 04:11:11;;;;;;;17.90;8.07;;;;;;;;;;5029519;28;20044;-60
2023/11/11 04:13:41;;;;;;;18.67;6.28;;;;;;;;;;5033574;28;20074;-61
2023/11/11 04:16:09;;;;;;;19.10;8.38;;;;;;;;;;5025874;28;20537;-60
2023/11/11 04:18:35;;;;;;;14.80;7.22;;;;;;;;;;5015639;28;20033;-63
2023/11/11 04:21:02;;;;;;;12.20;6.60;;;;;;;;;;5029011;28;20075;-61
2023/11/11 04:23:30;;;;;;;14.50;6.38;;;;;;;;;;5035924;28;20029;-61
2023/11/11 04:26:03;;;;;;;14.00;6.18;;;;;;;;;;5035464;28;20072;-61
2023/11/11 04:28:29;;;;;;;9.88;5.68;;;;;;;;;;5033335;28;20475;-60
2023/11/11 04:30:55;;;;;;;14.20;5.88;;;;;;;;;;5032284;28;20489;-61
2023/11/11 04:33:21;;;;;;;14.02;5.82;;;;;;;;;;5032568;28;20453;-64
2023/11/11 04:35:47;;;;;;;9.35;5.50;;;;;;;;;;5029238;28;20025;-62
2023/11/11 04:38:13;;;;;;;7.88;5.28;;;;;;;;;;5036728;28;20025;-62
2023/11/11 04:40:40;;;;;;;8.88;5.60;;;;;;;;;;5030645;28;20409;-62
2023/11/11 04:43:06;;;;;;;10.95;5.05;;;;;;;;;;5031332;28;20021;-62
2023/11/11 04:45:32;;;;;;;11.18;5.13;;;;;;;;;;5031729;28;20112;-61
2023/11/11 04:47:58;;;;;;;11.27;4.90;;;;;;;;;;5036222;28;20052;-60
2023/11/11 04:50:25;;;;;;;14.57;5.72;;;;;;;;;;5009512;28;20128;-60
2023/11/11 04:52:51;;;;;;;13.50;6.30;;;;;;;;;;5033607;28;20025;-60
2023/11/11 04:55:18;;;;;;;8.32;5.05;;;;;;;;;;5029138;28;20032;-62
2023/11/11 04:57:44;;;;;;;8.98;5.75;;;;;;;;;;5030556;28;20560;-61
2023/11/11 05:00:10;;;;;;;12.38;6.22;;;;;;;;;;5038802;28;20121;-60
2023/11/11 05:02:39;;;;;;;10.50;5.13;;;;;;;;;;5013651;28;20373;-61
2023/11/11 05:05:05;;;;;;;9.02;4.80;;;;;;;;;;5017436;28;20136;-61
2023/11/11 05:07:32;;;;;;;11.10;5.47;;;;;;;;;;5011365;28;20106;-61
2023/11/11 05:09:59;;;;;;;11.77;5.00;;;;;;;;;;5019913;28;20024;-61
2023/11/11 05:12:25;;;;;;;9.07;4.63;;;;;;;;;;5015198;28;20029;-62
2023/11/11 05:14:54;;;;;;;10.40;5.25;;;;;;;;;;5015675;28;20048;-61
2023/11/11 05:17:25;;;;;;;8.88;5.03;;;;;;;;;;5007989;28;20025;-60
2023/11/11 05:19:55;;;;;;;10.15;5.38;;;;;;;;;;5008473;28;20029;-60
2023/11/11 05:22:21;;;;;;;8.77;5.30;;;;;;;;;;5019070;28;20695;-60
2023/11/11 05:24:47;;;;;;;14.18;5.20;;;;;;;;;;5021808;28;20061;-61
2023/11/11 05:27:14;;;;;;;11.30;6.22;;;;;;;;;;5012163;28;20038;-60
2023/11/11 05:29:41;;;;;;;10.35;4.65;;;;;;;;;;5026206;28;20407;-60
2023/11/11 05:32:07;;;;;;;11.02;5.93;;;;;;;;;;5015871;28;20372;-61
2023/11/11 05:34:33;;;;;;;6.78;4.97;;;;;;;;;;5014781;28;20014;-60
2023/11/11 05:36:59;;;;;;;10.68;4.93;;;;;;;;;;5013346;28;20417;-60
2023/11/11 05:39:26;;;;;;;11.60;5.65;;;;;;;;;;5017675;28;20025;-61
2023/11/11 05:41:53;;;;;;;12.48;5.75;;;;;;;;;;5020748;28;20048;-62
2023/11/11 05:44:19;;;;;;;7.22;4.20;;;;;;;;;;5020660;28;20676;-60
2023/11/11 05:46:45;;;;;;;9.02;5.00;;;;;;;;;;5028540;28;20086;-61
2023/11/11 05:49:11;;;;;;;8.52;4.30;;;;;;;;;;5013872;28;20045;-60
2023/11/11 05:51:37;;;;;;;7.35;4.65;;;;;;;;;;5010707;28;20024;-61
2023/11/11 05:54:04;;;;;;;6.95;4.22;;;;;;;;;;5018670;28;20026;-61
2023/11/11 05:56:30;;;;;;;8.25;4.43;;;;;;;;;;5008165;28;20036;-61
2023/11/11 05:58:58;;;;;;;7.57;3.78;;;;;;;;;;5018738;28;20553;-61
2023/11/11 06:01:26;;;;;;;11.13;4.72;;;;;;;;;;5014232;28;20545;-61
2023/11/11 06:03:52;;;;;;;6.68;4.05;;;;;;;;;;5015688;28;20467;-63
2023/11/11 06:06:18;;;;;;;8.13;4.70;;;;;;;;;;5021071;28;20109;-61
2023/11/11 06:08:44;;;;;;;8.02;4.45;;;;;;;;;;5033503;28;20024;-61
2023/11/11 06:11:10;;;;;;;8.52;4.20;;;;;;;;;;5034371;28;20028;-61
2023/11/11 06:13:37;;;;;;;6.82;4.18;;;;;;;;;;5039861;28;20108;-60
2023/11/11 06:16:04;;;;;;;7.93;5.20;;;;;;;;;;5032873;28;20593;-61
2023/11/11 06:18:31;;;;;;;10.98;4.93;;;;;;;;;;5034435;28;20503;-61
2023/11/11 06:20:57;;;;;;;7.07;4.80;;;;;;;;;;5030841;28;20494;-66
2023/11/11 06:23:23;;;;;;;12.25;4.43;;;;;;;;;;5037923;28;20040;-61
2023/11/11 06:25:49;;;;;;;6.22;4.43;;;;;;;;;;5040315;28;20513;-61
2023/11/11 06:28:16;;;;;;;13.30;5.22;;;;;;;;;;5032036;28;20048;-61
2023/11/11 06:30:42;;;;;;;12.02;4.25;;;;;;;;;;5020821;28;20464;-60
2023/11/11 06:33:08;;;;;;;11.68;4.95;;;;;;;;;;5034631;28;20032;-62
2023/11/11 06:35:35;;;;;;;14.52;4.95;;;;;;;;;;5038570;28;20075;-60
2023/11/11 06:38:01;;;;;;;26.65;6.22;;;;;;;;;;5034414;28;20029;-61
2023/11/11 06:40:27;;;;;;;23.08;6.03;;;;;;;;;;5034842;28;20120;-60
2023/11/11 06:42:55;;;;;;;27.05;7.45;;;;;;;;;;5037893;28;20102;-67
2023/11/11 06:45:21;;;;;;;18.52;5.25;;;;;;;;;;5032727;28;20029;-60
2023/11/11 06:47:48;;;;;;;27.30;7.38;;;;;;;;;;5031580;28;20021;-60
2023/11/11 06:50:17;;;;;;;15.82;5.45;;;;;;;;;;5014839;28;20712;-61
2023/11/11 06:52:43;;;;;;;19.13;5.22;;;;;;;;;;5035619;28;20025;-61
2023/11/11 06:55:10;;;;;;;24.33;5.47;;;;;;;;;;5017768;28;20630;-61
2023/11/11 06:57:39;;;;;;;17.95;6.35;;;;;;;;;;5033057;28;20029;-61
2023/11/11 07:00:09;;;;;;;28.27;6.07;;;;;;;;;;5033342;28;20033;-61
2023/11/11 07:02:35;;;;;;;27.55;6.05;;;;;;;;;;5017649;28;20029;-62
2023/11/11 07:05:04;;;;;;;36.63;6.18;;;;;;;;;;5028478;28;20025;-62
2023/11/11 07:07:31;;;;;;;30.77;6.68;;;;;;;;;;5014359;28;20068;-61
2023/11/11 07:09:57;;;;;;;27.67;5.95;;;;;;;;;;5013504;28;20033;-62
2023/11/11 07:12:23;;;;;;;30.83;6.13;;;;;;;;;;5027983;28;20091;-61
2023/11/11 07:14:49;;;;;;;40.35;5.85;;;;;;;;;;5032502;28;20029;-60
2023/11/11 07:17:16;;;;;;;48.35;6.47;;;;;;;;;;5031963;28;20034;-61
2023/11/11 07:19:42;;;;;;;18.30;5.35;;;;;;;;;;5026458;28;20033;-61
2023/11/11 07:22:08;;;;;;;37.75;6.43;;;;;;;;;;5015184;28;20033;-61
2023/11/11 07:24:34;;;;;;;59.08;6.43;;;;;;;;;;5033574;28;20509;-60
2023/11/11 07:27:01;;;;;;;23.85;5.75;;;;;;;;;;5028635;28;20116;-61
2023/11/11 07:29:28;;;;;;;23.17;6.50;;;;;;;;;;5032673;28;20083;-61
2023/11/11 07:31:55;;;;;;;33.20;6.13;;;;;;;;;;5025082;28;20167;-61
2023/11/11 07:34:22;;;;;;;17.20;5.50;;;;;;;;;;5033532;28;20083;-61
2023/11/11 07:36:48;;;;;;;21.42;4.85;;;;;;;;;;5034662;28;20060;-61
2023/11/11 07:39:15;;;;;;;16.75;5.05;;;;;;;;;;5025429;28;20434;-62
2023/11/11 07:41:41;;;;;;;21.15;5.97;;;;;;;;;;5029780;28;20656;-60
2023/11/11 07:44:09;;;;;;;22.27;5.10;;;;;;;;;;5040413;28;20517;-65
2023/11/11 07:46:35;;;;;;;18.55;5.25;;;;;;;;;;5033704;28;20029;-61
2023/11/11 07:49:02;;;;;;;8.75;4.38;;;;;;;;;;5040936;28;20025;-60
2023/11/11 07:51:28;;;;;;;11.38;4.18;;;;;;;;;;5034576;28;20272;-61
2023/11/11 07:53:54;;;;;;;43.25;6.25;;;;;;;;;;5034818;28;20029;-61
2023/11/11 07:56:21;;;;;;;16.55;5.00;;;;;;;;;;5034341;28;20056;-61
2023/11/11 07:58:48;;;;;;;18.48;4.53;;;;;;;;;;5030195;28;20056;-60
2023/11/11 08:01:17;;;;;;;5.80;4.20;;;;;;;;;;5034872;28;20029;-61
2023/11/11 08:03:44;;;;;;;14.18;4.45;;;;;;;;;;5031757;28;20084;-60
2023/11/11 08:06:10;;;;;;;26.08;4.55;;;;;;;;;;5013161;28;20507;-61
2023/11/11 08:08:36;;;;;;;14.13;3.75;;;;;;;;;;5032542;28;20040;-65
2023/11/11 08:11:08;;;;;;;27.42;4.78;;;;;;;;;;5035338;28;20029;-60
2023/11/11 08:13:34;;;;;;;10.23;4.30;;;;;;;;;;5037109;28;20017;-62
2023/11/11 08:16:00;;;;;;;14.63;4.00;;;;;;;;;;5032026;28;20056;-60
2023/11/11 08:18:27;;;;;;;25.90;4.30;;;;;;;;;;5028206;28;20082;-61
2023/11/11 08:20:53;;;;;;;20.10;4.60;;;;;;;;;;5037456;28;20051;-61
2023/11/11 08:23:19;;;;;;;23.63;4.72;;;;;;;;;;5034787;28;20040;-60
2023/11/11 08:25:45;;;;;;;17.40;4.13;;;;;;;;;;5035330;28;20048;-61
2023/11/11 08:28:11;;;;;;;14.10;3.58;;;;;;;;;;5037952;28;20333;-60
2023/11/11 08:30:37;;;;;;;18.90;5.05;;;;;;;;;;5041194;28;20395;-61
2023/11/11 08:33:04;;;;;;;16.38;4.10;;;;;;;;;;5034789;28;20033;-61
2023/11/11 08:35:30;;;;;;;11.60;3.80;;;;;;;;;;5040150;28;20111;-60
2023/11/11 08:37:57;;;;;;;11.80;3.55;;;;;;;;;;5038449;28;20025;-60
2023/11/11 08:40:23;;;;;;;11.68;3.78;;;;;;;;;;5036194;28;20040;-61
2023/11/11 08:42:49;;;;;;;6.80;3.45;;;;;;;;;;5037884;28;20029;-61
2023/11/11 08:45:15;;;;;;;7.95;3.38;;;;;;;;;;5035914;28;20098;-61
2023/11/11 08:47:41;;;;;;;5.05;3.25;;;;;;;;;;5038000;28;20140;-61
2023/11/11 08:50:09;;;;;;;6.53;3.53;;;;;;;;;;5043728;28;20025;-61
2023/11/11 08:52:38;;;;;;;8.95;4.05;;;;;;;;;;5036456;28;20098;-61
2023/11/11 08:55:06;;;;;;;9.45;4.10;;;;;;;;;;5039914;28;20032;-61
2023/11/11 08:57:32;;;;;;;5.53;3.65;;;;;;;;;;5038335;28;20025;-61
2023/11/11 08:59:58;;;;;;;5.25;3.28;;;;;;;;;;5037042;28;20363;-61
2023/11/11 09:02:24;;;;;;;5.60;3.05;;;;;;;;;;5036594;28;20124;-60
2023/11/11 09:04:52;;;;;;;7.28;3.47;;;;;;;;;;5040041;28;20025;-61
2023/11/11 09:07:20;;;;;;;6.32;3.35;;;;;;;;;;5036233;28;20440;-60
2023/11/11 09:09:47;;;;;;;5.43;3.75;;;;;;;;;;5040083;28;20200;-60
2023/11/11 09:12:14;;;;;;;5.65;3.60;;;;;;;;;;5034769;28;20435;-62
2023/11/11 09:14:40;;;;;;;5.65;3.35;;;;;;;;;;5038032;28;20033;-61
2023/11/11 09:17:06;;;;;;;4.68;3.10;;;;;;;;;;5037741;28;20501;-61
2023/11/11 09:19:32;;;;;;;7.25;4.00;;;;;;;;;;5036123;28;20040;-60
2023/11/11 09:21:58;;;;;;;7.60;3.75;;;;;;;;;;5038438;28;20098;-61
2023/11/11 09:24:25;;;;;;;7.07;4.30;;;;;;;;;;5037917;28;20238;-60
2023/11/11 09:26:52;;;;;;;6.78;3.42;;;;;;;;;;5034519;28;20124;-61
2023/11/11 09:29:19;;;;;;;6.60;3.78;;;;;;;;;;5033389;28;20029;-61
2023/11/11 09:31:45;;;;;;;4.85;3.35;;;;;;;;;;5034631;28;20036;-60
2023/11/11 09:34:12;;;;;;;5.40;3.47;;;;;;;;;;5034934;28;20021;-61
2023/11/11 09:36:44;;;;;;;4.85;3.13;;;;;;;;;;5038052;28;20022;-60
2023/11/11 09:39:13;;;;;;;5.15;3.03;;;;;;;;;;5037762;28;20491;-61
2023/11/11 09:41:40;;;;;;;4.40;2.95;;;;;;;;;;5019606;28;20060;-61
2023/11/11 09:44:06;;;;;;;6.40;3.33;;;;;;;;;;5040208;28;20653;-61
2023/11/11 09:46:38;;;;;;;3.78;2.60;;;;;;;;;;5036422;28;20038;-61
2023/11/11 09:49:05;;;;;;;4.43;2.67;;;;;;;;;;5036405;28;20025;-60
2023/11/11 09:51:32;;;;;;;5.68;3.30;;;;;;;;;;5036118;28;20031;-61
2023/11/11 09:53:59;;;;;;;6.95;3.72;;;;;;;;;;5033297;28;20349;-60
2023/11/11 09:56:26;;;;;;;6.93;3.67;;;;;;;;;;5034377;28;20033;-64
2023/11/11 09:58:53;;;;;;;5.65;3.80;;;;;;;;;;5033974;28;20108;-61
2023/11/11 10:01:19;;;;;;;4.68;3.25;;;;;;;;;;5037321;28;20037;-63
2023/11/11 10:03:46;;;;;;;7.97;4.25;;;;;;;;;;5030792;28;20052;-60
2023/11/11 10:06:12;;;;;;;3.88;3.00;;;;;;;;;;5035933;28;20033;-62
2023/11/11 10:08:38;;;;;;;6.45;3.45;;;;;;;;;;5037310;28;20060;-61
2023/11/11 10:11:09;;;;;;;13.68;8.35;;;;;;;;;;5039794;28;20155;-61
2023/11/11 10:13:35;;;;;;;7.10;5.25;;;;;;;;;;5036909;28;20025;-60
2023/11/11 10:16:27;;;;;;;8.32;3.58;;;;;;;;;;5034126;28;20028;-61
2023/11/11 10:18:57;;;;;;;5.15;3.28;;;;;;;;;;5034870;28;20050;-61
2023/11/11 10:21:23;;;;;;;7.75;3.80;;;;;;;;;;5039649;28;20029;-61
2023/11/11 10:23:50;;;;;;;5.32;3.15;;;;;;;;;;5039173;28;20487;-61
2023/11/11 10:26:17;;;;;;;8.63;3.20;;;;;;;;;;5038495;28;20820;-61
2023/11/11 10:28:52;;;;;;;4.18;3.42;;;;;;;;;;5037033;28;20526;-64
2023/11/11 10:31:21;;;;;;;6.32;3.13;;;;;;;;;;5038546;28;20029;-65
2023/11/11 10:33:48;;;;;;;5.15;3.40;;;;;;;;;;5042932;28;20424;-61
2023/11/11 10:36:14;;;;;;;5.90;3.83;;;;;;;;;;5034824;28;20048;-61
2023/11/11 10:38:42;;;;;;;8.68;3.20;;;;;;;;;;5035892;28;20041;-60
2023/11/11 10:41:09;;;;;;;7.72;3.30;;;;;;;;;;5034414;28;20158;-61
2023/11/11 10:43:35;;;;;;;6.80;3.65;;;;;;;;;;5038541;28;20045;-62
2023/11/11 10:46:02;;;;;;;7.40;4.28;;;;;;;;;;5037557;28;20036;-61
2023/11/11 10:48:31;;;;;;;9.63;4.53;;;;;;;;;;5036393;28;20074;-60
2023/11/11 10:50:58;;;;;;;6.95;3.72;;;;;;;;;;5036766;28;20028;-61
2023/11/11 10:53:27;;;;;;;8.23;3.63;;;;;;;;;;5037267;28;20100;-61
2023/11/11 10:55:54;;;;;;;4.63;3.17;;;;;;;;;;5042703;28;20422;-61
2023/11/11 10:58:20;;;;;;;8.85;3.85;;;;;;;;;;5038369;28;20418;-61
2023/11/11 11:00:50;;;;;;;5.53;3.10;;;;;;;;;;5036795;28;20613;-63
2023/11/11 11:03:21;;;;;;;7.82;3.53;;;;;;;;;;5030059;28;20047;-61
2023/11/11 11:05:50;;;;;;;6.22;3.40;;;;;;;;;;5037538;28;20398;-62
2023/11/11 11:08:27;;;;;;;6.15;3.83;;;;;;;;;;5038804;28;20047;-62
2023/11/11 11:11:13;;;;;;;8.90;3.65;;;;;;;;;;5032456;28;20029;-62
2023/11/11 11:13:40;;;;;;;7.93;3.17;;;;;;;;;;5038730;28;20021;-64
2023/11/11 11:16:08;;;;;;;6.20;3.88;;;;;;;;;;5033681;28;20124;-61
2023/11/11 11:18:34;;;;;;;6.22;3.50;;;;;;;;;;5035613;28;20025;-63
2023/11/11 11:21:03;;;;;;;5.03;3.67;;;;;;;;;;5033721;28;20514;-62
2023/11/11 11:23:38;;;;;;;5.70;3.47;;;;;;;;;;5036131;28;20045;-62
2023/11/11 11:26:04;;;;;;;7.57;3.28;;;;;;;;;;5036852;28;20437;-61
2023/11/11 11:28:31;;;;;;;5.78;3.55;;;;;;;;;;5037346;28;20172;-62
2023/11/11 11:30:58;;;;;;;6.80;3.35;;;;;;;;;;5038581;28;20483;-62
2023/11/11 11:33:25;;;;;;;6.20;3.40;;;;;;;;;;5029244;28;20039;-62
2023/11/11 11:35:53;;;;;;;5.28;3.30;;;;;;;;;;5031052;28;20120;-62
2023/11/11 11:38:39;;;;;;;3.80;3.17;;;;;;;;;;5035246;28;20079;-60
2023/11/11 11:41:21;;;;;;;6.90;3.33;;;;;;;;;;5031634;28;20060;-63
2023/11/11 11:43:54;;;;;;;6.63;3.20;;;;;;;;;;5034224;28;20161;-62
2023/11/11 11:46:21;;;;;;;8.63;3.67;;;;;;;;;;5032404;28;20033;-62
2023/11/11 11:48:48;;;;;;;26.35;10.48;;;;;;;;;;5033976;28;20036;-61
2023/11/11 11:51:15;;;;;;;29.67;14.02;;;;;;;;;;5031804;28;20509;-61
2023/11/11 11:53:42;;;;;;;23.42;11.02;;;;;;;;;;5037198;28;20029;-61
2023/11/11 11:56:10;;;;;;;14.73;8.85;;;;;;;;;;5035322;28;20043;-61
2023/11/11 11:58:46;;;;;;;9.68;6.32;;;;;;;;;;5030497;28;20563;-61
2023/11/11 12:01:21;;;;;;;11.32;4.65;;;;;;;;;;5035938;28;20026;-62
2023/11/11 12:03:48;;;;;;;8.25;4.65;;;;;;;;;;5029169;28;20072;-60
2023/11/11 12:06:14;;;;;;;8.80;3.03;;;;;;;;;;5020805;28;20502;-61
2023/11/11 12:08:46;;;;;;;5.47;3.15;;;;;;;;;;5015183;28;20032;-61
2023/11/11 12:11:14;;;;;;;6.75;3.47;;;;;;;;;;5012768;28;20029;-61
2023/11/11 12:13:41;;;;;;;4.95;3.03;;;;;;;;;;5031527;28;20490;-61
2023/11/11 12:16:07;;;;;;;5.35;3.00;;;;;;;;;;5020776;28;20128;-61
2023/11/11 12:18:33;;;;;;;6.25;3.20;;;;;;;;;;5023284;28;20036;-61
2023/11/11 12:20:59;;;;;;;4.50;2.80;;;;;;;;;;5036900;28;20025;-60
2023/11/11 12:23:27;;;;;;;5.90;2.97;;;;;;;;;;5029881;28;20526;-64
2023/11/11 12:25:53;;;;;;;10.13;4.00;;;;;;;;;;5041234;28;20040;-61
2023/11/11 12:28:20;;;;;;;7.68;3.20;;;;;;;;;;5030869;28;20414;-62
2023/11/11 12:30:46;;;;;;;3.92;3.08;;;;;;;;;;5035380;28;20104;-62
2023/11/11 12:33:12;;;;;;;4.82;2.75;;;;;;;;;;5028902;28;20094;-61
2023/11/11 12:35:41;;;;;;;10.90;3.58;;;;;;;;;;5033206;28;20668;-61
2023/11/11 12:38:27;;;;;;;7.57;3.15;;;;;;;;;;5034398;28;20036;-61
2023/11/11 12:40:54;;;;;;;6.25;3.30;;;;;;;;;;5034919;28;20045;-61
2023/11/11 12:43:21;;;;;;;4.43;2.88;;;;;;;;;;5018730;28;20033;-62
2023/11/11 12:46:00;;;;;;;9.18;3.20;;;;;;;;;;5038037;28;20056;-63
2023/11/11 12:48:34;;;;;;;6.38;3.28;;;;;;;;;;5020391;28;20083;-62
2023/11/11 12:51:00;;;;;;;6.00;3.60;;;;;;;;;;5039084;28;20068;-61
2023/11/11 12:53:26;;;;;;;6.78;3.53;;;;;;;;;;5032523;28;20413;-61
2023/11/11 12:56:06;;;;;;;6.30;4.30;;;;;;;;;;5035671;28;20035;-61
2023/11/11 12:58:32;;;;;;;8.73;3.78;;;;;;;;;;5028887;28;20111;-61
2023/11/11 13:01:04;;;;;;;6.80;3.40;;;;;;;;;;5017286;28;20037;-61
2023/11/11 13:03:31;;;;;;;8.85;4.63;;;;;;;;;;5028290;28;20133;-62
2023/11/11 13:05:58;;;;;;;7.95;4.28;;;;;;;;;;5017085;28;20069;-61
2023/11/11 13:08:25;;;;;;;4.72;3.08;;;;;;;;;;5011569;28;20040;-62
2023/11/11 13:11:01;;;;;;;6.82;3.40;;;;;;;;;;5014881;28;20039;-61
2023/11/11 13:13:31;;;;;;;7.28;3.78;;;;;;;;;;5010996;28;20029;-61
2023/11/11 13:15:59;;;;;;;8.05;3.33;;;;;;;;;;5008019;28;20108;-61
2023/11/11 13:18:25;;;;;;;6.63;4.15;;;;;;;;;;5017906;28;20091;-61
2023/11/11 13:20:52;;;;;;;9.25;3.95;;;;;;;;;;5018115;28;20029;-61
2023/11/11 13:23:19;;;;;;;7.40;3.47;;;;;;;;;;5013028;28;20415;-61
2023/11/11 13:25:50;;;;;;;11.10;4.25;;;;;;;;;;5020909;28;20361;-61
2023/11/11 13:28:17;;;;;;;5.32;3.55;;;;;;;;;;5017428;28;20050;-62
2023/11/11 13:30:46;;;;;;;6.60;3.60;;;;;;;;;;5015890;28;20391;-61
2023/11/11 13:33:14;;;;;;;10.95;4.40;;;;;;;;;;5015567;28;20209;-61
2023/11/11 13:35:45;;;;;;;5.18;3.60;;;;;;;;;;5016592;28;20037;-62
2023/11/11 13:38:13;;;;;;;10.50;4.35;;;;;;;;;;5013676;28;20033;-64
2023/11/11 13:40:42;;;;;;;7.47;4.47;;;;;;;;;;5017280;28;20460;-62
2023/11/11 13:43:08;;;;;;;9.23;4.00;;;;;;;;;;5012167;28;20057;-64
2023/11/11 13:45:35;;;;;;;7.28;4.20;;;;;;;;;;5016452;28;20075;-62
2023/11/11 13:48:02;;;;;;;7.25;4.03;;;;;;;;;;5017870;28;20040;-62
2023/11/11 13:50:29;;;;;;;11.82;4.40;;;;;;;;;;5016026;28;20052;-62
2023/11/11 13:52:56;;;;;;;6.15;3.97;;;;;;;;;;5021555;28;20068;-61
2023/11/11 13:55:22;;;;;;;9.82;4.18;;;;;;;;;;5014108;28;20567;-61
2023/11/11 13:57:49;;;;;;;7.30;4.20;;;;;;;;;;5017138;28;20109;-61
2023/11/11 14:00:26;;;;;;;7.97;4.00;;;;;;;;;;5015159;28;20056;-61
2023/11/11 14:02:53;;;;;;;6.68;3.60;;;;;;;;;;5026276;28;20044;-61
2023/11/11 14:05:19;;;;;;;8.45;3.90;;;;;;;;;;5014078;28;20057;-61
2023/11/11 14:07:45;;;;;;;6.70;3.13;;;;;;;;;;5036648;28;20486;-63
2023/11/11 14:10:16;;;;;;;10.13;4.13;;;;;;;;;;5037344;28;20051;-61
2023/11/11 14:12:44;;;;;;;11.40;4.32;;;;;;;;;;5035824;28;20360;-62
2023/11/11 14:15:17;;;;;;;9.43;4.25;;;;;;;;;;5020828;28;20074;-62
2023/11/11 14:17:43;;;;;;;6.20;5.38;;;;;;;;;;5044458;28;20068;-61
2023/11/11 14:20:11;;;;;;;7.05;3.90;;;;;;;;;;5030660;28;20112;-61
2023/11/11 14:22:37;;;;;;;8.10;3.95;;;;;;;;;;5036093;28;20025;-61
2023/11/11 14:25:09;;;;;;;9.25;4.45;;;;;;;;;;5033069;28;20064;-61
2023/11/11 14:27:43;;;;;;;44.35;20.50;;;;;;;;;;5038384;28;20528;-60
2023/11/11 14:30:09;;;;;;;40.25;21.05;;;;;;;;;;5037449;28;20103;-61
2023/11/11 14:32:37;;;;;;;42.20;22.92;;;;;;;;;;5020247;28;20032;-61
2023/11/11 14:35:04;;;;;;;36.85;22.77;;;;;;;;;;5037136;28;20112;-61
2023/11/11 14:37:31;;;;;;;20.10;10.93;;;;;;;;;;5012454;28;20164;-61
2023/11/11 14:39:58;;;;;;;23.20;15.77;;;;;;;;;;5037923;28;20028;-60